This is the latest recevied weather packets stored in our database for station/object R1ZCU-14. If no packets are shown the sender has not sent any weather packets the latest 10 day(s).
| Time | Temp. | Humidity | Pressure | Rain* | Wind** | Luminosity | Snow |
|---|---|---|---|---|---|---|---|
| 1778237727 | 7.78° C | 38% | 1017.1 hPa | - | - | - | - |
| 1778237126 | 7.22° C | 41% | 1017.1 hPa | - | - | - | - |
| 1778236526 | 7.78° C | 39% | 1017 hPa | - | - | - | - |
| 1778235925 | 8.33° C | 38% | 1017 hPa | - | - | - | - |
| 1778235325 | 8.89° C | 38% | 1016.7 hPa | - | - | - | - |
| 1778234724 | 7.78° C | 40% | 1016.7 hPa | - | - | - | - |
| 1778234124 | 7.22° C | 43% | 1016.7 hPa | - | - | - | - |
| 1778233523 | 6.67° C | 43% | 1016.8 hPa | - | - | - | - |
| 1778232923 | 6.67° C | 45% | 1016.7 hPa | - | - | - | - |
| 1778232322 | 6.67° C | 46% | 1016.6 hPa | - | - | - | - |
| 1778231722 | 7.78° C | 42% | 1016.6 hPa | - | - | - | - |
| 1778231121 | 12.78° C | 32% | 1016.4 hPa | - | - | - | - |
| 1778230521 | 13.89° C | 29% | 1015.5 hPa | - | - | - | - |
| 1778229920 | 7.78° C | 45% | 1016.6 hPa | - | - | - | - |
| 1778229320 | 10° C | 40% | 1016.3 hPa | - | - | - | - |
| 1778228719 | 7.22° C | 48% | 1016.2 hPa | - | - | - | - |
| 1778228119 | 6.67° C | 52% | 1016.1 hPa | - | - | - | - |
| 1778227518 | 6.11° C | 53% | 1016.2 hPa | - | - | - | - |
| 1778226918 | 5.56° C | 56% | 1016.3 hPa | - | - | - | - |
| 1778226317 | 5° C | 60% | 1016.1 hPa | - | - | - | - |
| 1778225717 | 5.56° C | 61% | 1016.2 hPa | - | - | - | - |
| 1778225116 | 5.56° C | 60% | 1016.1 hPa | - | - | - | - |
| 1778224516 | 6.11° C | 59% | 1016 hPa | - | - | - | - |
| 1778223915 | 6.67° C | 57% | 1015.9 hPa | - | - | - | - |
| 1778223315 | 6.67° C | 56% | 1015.8 hPa | - | - | - | - |
* Rain since midnight (hover to see other rain measurements)
** Current wind speed in m/s (hover to see current wind gust speed)